Time;durP1;ratioP1;P1;durP2;ratioP2;P2;SDS_P1;SDS_P2;PMS_P1;PMS_P2;Temp;Humidity;BMP_temperature;BMP_pressure;BME280_temperature;BME280_humidity;BME280_pressure;Samples;Min_cycle;Max_cycle;Signal;HPM_P1;HPM_P2
2022/07/05 00:00:03;;;;;;;1.90;1.10;;;13.50;99.90;;;;;;6192132;23;20023;-92
2022/07/05 00:02:32;;;;;;;1.13;1.02;;;13.50;99.90;;;;;;6191611;23;20056;-91
2022/07/05 00:05:00;;;;;;;1.20;0.90;;;13.50;99.90;;;;;;6216617;23;20027;-91
2022/07/05 00:07:26;;;;;;;1.92;1.40;;;13.40;99.90;;;;;;6191411;23;20028;-91
2022/07/05 00:09:57;;;;;;;2.57;1.30;;;13.40;99.90;;;;;;6166532;23;20024;-92
2022/07/05 00:12:30;;;;;;;2.22;1.80;;;13.30;99.90;;;;;;6216401;23;20449;-91
2022/07/05 00:15:05;;;;;;;3.13;1.27;;;13.30;99.90;;;;;;6190679;23;20012;-91
2022/07/05 00:17:36;;;;;;;1.73;1.40;;;13.30;99.90;;;;;;6190945;23;20459;-91
2022/07/05 00:20:05;;;;;;;2.75;1.40;;;13.20;99.90;;;;;;6167194;23;20020;-92
2022/07/05 00:22:31;;;;;;;1.52;1.20;;;13.40;99.90;;;;;;6191662;23;20020;-91
2022/07/05 00:25:00;;;;;;;1.50;1.40;;;13.20;99.90;;;;;;6191304;23;20024;-91
2022/07/05 00:27:28;;;;;;;2.22;1.52;;;12.20;99.90;;;;;;6192178;23;20028;-92
2022/07/05 00:29:59;;;;;;;2.45;1.23;;;13.20;99.90;;;;;;6190259;23;20078;-91
2022/07/05 00:32:24;;;;;;;2.00;1.27;;;13.10;99.90;;;;;;6216341;23;20012;-91
2022/07/05 00:34:53;;;;;;;2.53;1.57;;;13.00;99.90;;;;;;6190553;23;20055;-91
2022/07/05 00:37:19;;;;;;;1.55;1.23;;;13.10;99.90;;;;;;6191217;23;20029;-91
2022/07/05 00:39:44;;;;;;;1.17;1.13;;;13.00;99.90;;;;;;6215830;23;20151;-93
2022/07/05 00:42:10;;;;;;;1.80;1.40;;;13.00;99.90;;;;;;6215574;23;20099;-91
2022/07/05 00:44:41;;;;;;;1.48;1.17;;;13.00;99.90;;;;;;6190758;23;20024;-91
2022/07/05 00:47:09;;;;;;;1.48;1.38;;;12.90;99.90;;;;;;6190358;23;20017;-91
2022/07/05 00:49:38;;;;;;;1.50;1.02;;;13.00;99.90;;;;;;6190555;23;20070;-90
2022/07/05 00:52:09;;;;;;;1.42;1.10;;;12.90;99.90;;;;;;6190960;23;20061;-91
2022/07/05 00:54:37;;;;;;;1.10;1.10;;;12.90;99.90;;;;;;6216164;23;20020;-91
2022/07/05 00:57:06;;;;;;;1.45;1.35;;;12.90;99.90;;;;;;6189338;23;20310;-90
2022/07/05 00:59:32;;;;;;;1.00;1.00;;;12.80;99.90;;;;;;6189891;23;20467;-91
2022/07/05 01:02:02;;;;;;;1.55;1.45;;;12.90;99.90;;;;;;6214740;23;20017;-91
2022/07/05 01:04:30;;;;;;;1.02;0.93;;;12.00;99.90;;;;;;6215643;23;20109;-90
2022/07/05 01:07:09;;;;;;;0.80;0.80;;;12.70;99.90;;;;;;6189874;23;20020;-91
2022/07/05 01:09:40;;;;;;;0.90;0.90;;;12.60;99.90;;;;;;6190843;23;20090;-90
2022/07/05 01:12:08;;;;;;;1.33;1.33;;;12.70;99.90;;;;;;6215614;23;20445;-91
2022/07/05 01:14:35;;;;;;;1.35;1.15;;;12.70;99.90;;;;;;6190445;23;20112;-91
2022/07/05 01:17:08;;;;;;;1.52;0.95;;;12.60;99.90;;;;;;6190294;23;20464;-91
2022/07/05 01:19:34;;;;;;;1.23;1.13;;;12.80;99.90;;;;;;6215504;23;20012;-92
2022/07/05 01:22:04;;;;;;;1.20;1.10;;;11.70;99.90;;;;;;6215577;23;20090;-91
2022/07/05 01:24:31;;;;;;;1.13;1.02;;;12.60;99.90;;;;;;6194784;23;20051;-90
2022/07/05 01:26:57;;;;;;;2.08;0.95;;;12.50;99.90;;;;;;6220575;23;20055;-91
2022/07/05 01:29:23;;;;;;;1.30;1.02;;;12.40;99.90;;;;;;6220695;23;20023;-90
2022/07/05 01:31:54;;;;;;;1.33;1.17;;;12.40;99.90;;;;;;6195843;23;20451;-90
2022/07/05 01:34:23;;;;;;;1.15;1.05;;;12.40;99.90;;;;;;6194619;23;20016;-91
2022/07/05 01:36:51;;;;;;;1.33;1.08;;;12.40;99.90;;;;;;6195108;23;20020;-91
2022/07/05 01:39:18;;;;;;;1.05;0.95;;;12.40;99.90;;;;;;6194394;23;20043;-91
2022/07/05 01:41:44;;;;;;;1.48;1.20;;;12.30;99.90;;;;;;6220842;23;20012;-91
2022/07/05 01:44:12;;;;;;;1.07;1.00;;;12.40;99.90;;;;;;6196122;23;20475;-91
2022/07/05 01:46:42;;;;;;;1.20;1.10;;;12.20;99.90;;;;;;6196390;23;20099;-91
2022/07/05 01:49:16;;;;;;;1.00;0.90;;;12.20;99.90;;;;;;6195808;23;20017;-91
2022/07/05 01:51:50;;;;;;;1.63;1.00;;;12.20;99.90;;;;;;6195387;23;20330;-91
2022/07/05 01:54:18;;;;;;;3.88;1.23;;;12.10;99.90;;;;;;6220156;23;20058;-92
2022/07/05 01:56:49;;;;;;;1.02;1.02;;;12.10;99.90;;;;;;6195118;23;20340;-90
2022/07/05 01:59:14;;;;;;;0.98;0.80;;;12.00;99.90;;;;;;6195559;23;20054;-91
2022/07/05 02:01:40;;;;;;;2.87;1.40;;;12.10;99.90;;;;;;6195562;23;20387;-91
2022/07/05 02:04:11;;;;;;;1.60;1.40;;;12.00;99.90;;;;;;6220046;23;20043;-91
2022/07/05 02:06:39;;;;;;;2.67;1.73;;;12.10;99.90;;;;;;6219884;23;20074;-91
2022/07/05 02:09:09;;;;;;;1.52;1.08;;;12.00;99.90;;;;;;6194107;23;20017;-91
2022/07/05 02:11:37;;;;;;;1.90;1.10;;;12.00;99.90;;;;;;6219839;23;20012;-90
2022/07/05 02:14:03;;;;;;;2.97;1.98;;;11.90;99.90;;;;;;6194193;23;20383;-90
2022/07/05 02:16:32;;;;;;;2.92;1.77;;;11.90;99.90;;;;;;6194682;23;20023;-91
2022/07/05 02:18:58;;;;;;;1.70;1.60;;;11.30;99.90;;;;;;6194853;23;20081;-94
2022/07/05 02:21:26;;;;;;;2.27;1.57;;;11.90;99.90;;;;;;6194118;23;20055;-90
2022/07/05 02:23:52;;;;;;;2.42;2.05;;;12.00;99.90;;;;;;6170419;23;20102;-90
2022/07/05 02:26:21;;;;;;;2.23;1.87;;;12.00;99.90;;;;;;6193784;23;20761;-91
2022/07/05 02:28:48;;;;;;;2.05;1.88;;;11.90;99.90;;;;;;6194540;23;20024;-90
2022/07/05 02:31:15;;;;;;;3.30;2.35;;;11.90;99.90;;;;;;6194432;23;20008;-89
2022/07/05 02:33:43;;;;;;;1.83;1.50;;;11.90;99.90;;;;;;6194471;23;20440;-90
2022/07/05 02:36:11;;;;;;;2.40;1.63;;;11.90;99.90;;;;;;6194829;23;20081;-90
2022/07/05 02:38:39;;;;;;;2.25;1.90;;;11.90;99.90;;;;;;6195006;23;20016;-90
2022/07/05 02:41:19;;;;;;;2.30;1.73;;;11.90;99.90;;;;;;6194249;23;20075;-90
2022/07/05 02:43:47;;;;;;;1.73;1.60;;;11.80;99.90;;;;;;6194485;23;20451;-91
2022/07/05 02:46:13;;;;;;;3.63;1.85;;;11.80;99.90;;;;;;6193989;23;20016;-90
2022/07/05 02:48:39;;;;;;;2.50;1.83;;;11.80;99.90;;;;;;6219772;23;20168;-90
2022/07/05 02:51:07;;;;;;;2.08;1.65;;;11.80;99.90;;;;;;6194007;23;20486;-91
2022/07/05 02:53:34;;;;;;;3.30;2.10;;;11.70;99.90;;;;;;6193882;23;20019;-91
2022/07/05 02:56:05;;;;;;;3.67;2.00;;;11.70;99.90;;;;;;6194676;23;20146;-90
2022/07/05 02:58:33;;;;;;;1.90;1.40;;;11.90;99.90;;;;;;6195015;23;20023;-91
2022/07/05 03:00:59;;;;;;;1.45;1.17;;;11.70;99.90;;;;;;6219599;23;20416;-90
2022/07/05 03:03:25;;;;;;;3.67;1.70;;;11.60;99.90;;;;;;6168674;23;20016;-91
2022/07/05 03:05:50;;;;;;;1.60;1.50;;;11.70;99.90;;;;;;6219443;23;20027;-92
2022/07/05 03:08:19;;;;;;;3.40;2.23;;;10.40;99.90;;;;;;6194594;23;20020;-91
2022/07/05 03:10:45;;;;;;;3.10;1.40;;;11.60;99.90;;;;;;6194542;23;20020;-91
2022/07/05 03:13:10;;;;;;;2.53;2.30;;;11.70;99.90;;;;;;6193986;23;20101;-91
2022/07/05 03:15:39;;;;;;;2.83;2.03;;;10.60;99.90;;;;;;6194077;23;20012;-90
2022/07/05 03:18:05;;;;;;;2.70;1.88;;;11.70;99.90;;;;;;6219190;23;20095;-92
2022/07/05 03:20:42;;;;;;;1.53;1.43;;;10.60;99.90;;;;;;6193402;23;20048;-90
2022/07/05 03:23:08;;;;;;;;;;;11.60;99.90;;;;;;6219591;23;20019;-95
2022/07/05 03:25:34;;;;;;;2.55;1.95;;;11.60;99.90;;;;;;6194087;23;19916;-90
2022/07/05 03:28:07;;;;;;;2.63;1.97;;;11.60;99.90;;;;;;6194133;23;20024;-90
2022/07/05 03:30:35;;;;;;;1.83;1.63;;;11.50;99.90;;;;;;6194066;23;20254;-90
2022/07/05 03:33:04;;;;;;;3.60;1.63;;;11.50;99.90;;;;;;6172106;23;20348;-91
2022/07/05 03:35:30;;;;;;;2.60;1.53;;;12.40;99.90;;;;;;6194218;23;20020;-90
2022/07/05 03:37:56;;;;;;;3.03;2.03;;;11.40;99.90;;;;;;6219614;23;20020;-90
2022/07/05 03:40:22;;;;;;;3.03;2.10;;;11.40;99.90;;;;;;6193921;23;20023;-91
2022/07/05 03:42:47;;;;;;;3.80;1.90;;;11.30;99.90;;;;;;6194595;23;20336;-90
2022/07/05 03:45:18;;;;;;;2.13;1.90;;;11.40;99.90;;;;;;6168869;23;20019;-91
2022/07/05 03:47:44;;;;;;;5.35;2.25;;;11.40;99.90;;;;;;6194955;23;20094;-91
2022/07/05 03:50:09;;;;;;;5.37;2.40;;;11.30;99.90;;;;;;6193665;23;20055;-93
2022/07/05 03:52:35;;;;;;;4.10;2.13;;;11.30;99.90;;;;;;6193953;23;20023;-90
2022/07/05 03:55:04;;;;;;;2.00;1.80;;;11.30;99.90;;;;;;6193632;23;20472;-89
2022/07/05 03:57:39;;;;;;;2.42;2.20;;;11.30;99.90;;;;;;6218656;23;20020;-90
2022/07/05 04:00:09;;;;;;;3.20;2.35;;;11.30;99.90;;;;;;6219237;23;20070;-90
2022/07/05 04:02:42;;;;;;;2.90;2.45;;;11.50;99.90;;;;;;6193950;23;20026;-90
2022/07/05 04:05:10;;;;;;;4.65;2.15;;;11.70;99.90;;;;;;6194856;23;20019;-91
2022/07/05 04:07:47;;;;;;;3.22;2.33;;;11.50;99.90;;;;;;6169123;23;20340;-90
2022/07/05 04:10:19;;;;;;;4.63;2.88;;;11.60;99.90;;;;;;6219081;23;20510;-93
2022/07/05 04:12:45;;;;;;;4.80;2.85;;;11.70;99.90;;;;;;6218900;23;20444;-90
2022/07/05 04:15:16;;;;;;;2.85;2.40;;;11.70;99.90;;;;;;6193729;23;20091;-90
2022/07/05 04:17:51;;;;;;;3.05;1.80;;;11.70;99.90;;;;;;6169876;23;20020;-90
2022/07/05 04:20:22;;;;;;;3.95;2.47;;;11.70;99.90;;;;;;6219148;23;20083;-91
2022/07/05 04:22:49;;;;;;;3.00;2.55;;;11.70;99.90;;;;;;6193066;23;20020;-91
2022/07/05 04:25:18;;;;;;;2.58;2.38;;;11.80;99.90;;;;;;6218592;23;20336;-93
2022/07/05 04:27:51;;;;;;;3.60;2.70;;;11.90;99.90;;;;;;6193468;23;20062;-91
2022/07/05 04:30:19;;;;;;;3.63;2.75;;;11.90;99.90;;;;;;6219729;23;20150;-92
2022/07/05 04:32:45;;;;;;;2.00;1.85;;;12.10;99.90;;;;;;6195857;23;20023;-91
2022/07/05 04:35:13;;;;;;;2.75;2.38;;;12.10;99.90;;;;;;6196335;23;20109;-91
2022/07/05 04:37:40;;;;;;;3.25;2.28;;;11.60;99.90;;;;;;6220747;23;20027;-89
2022/07/05 04:40:07;;;;;;;;;;;12.20;99.90;;;;;;6196246;23;20027;-90
2022/07/05 04:42:32;;;;;;;2.90;2.40;;;12.30;99.90;;;;;;6195202;23;19962;-91
2022/07/05 04:44:59;;;;;;;4.17;2.40;;;12.40;99.90;;;;;;6195496;23;20016;-90
2022/07/05 04:47:27;;;;;;;4.72;2.60;;;12.50;99.90;;;;;;6195550;23;20077;-90
2022/07/05 04:49:54;;;;;;;2.88;2.45;;;12.60;99.90;;;;;;6220531;23;20051;-90
2022/07/05 04:52:20;;;;;;;;;;;12.60;99.90;;;;;;6221016;23;20044;-94
2022/07/05 04:54:46;;;;;;;3.83;2.47;;;12.10;99.90;;;;;;6220766;23;20310;-91
2022/07/05 04:57:12;;;;;;;3.23;2.93;;;12.70;99.90;;;;;;6195200;23;20016;-90
2022/07/05 04:59:40;;;;;;;4.68;2.72;;;12.70;99.90;;;;;;6220331;23;20016;-90
2022/07/05 05:02:08;;;;;;;3.28;2.50;;;12.70;99.90;;;;;;6219830;23;20077;-91
2022/07/05 05:04:36;;;;;;;5.40;2.65;;;12.00;99.90;;;;;;6220002;23;20456;-90
2022/07/05 05:07:12;;;;;;;;;;;;;;;;;;;;;
2022/07/05 05:09:41;;;;;;;2.55;2.35;;;12.80;99.90;;;;;;6220593;23;20012;-90
2022/07/05 05:12:09;;;;;;;3.38;3.00;;;12.90;99.90;;;;;;6194634;23;20055;-90
2022/07/05 05:14:37;;;;;;;3.88;2.65;;;13.10;99.90;;;;;;6219896;23;20051;-90
2022/07/05 05:17:08;;;;;;;7.88;3.38;;;13.30;99.90;;;;;;6194778;23;20039;-93
2022/07/05 05:19:34;;;;;;;4.03;2.60;;;13.60;99.90;;;;;;6195034;23;20048;-90
2022/07/05 05:22:02;;;;;;;3.73;2.50;;;13.80;99.90;;;;;;6220223;23;20016;-90
2022/07/05 05:24:28;;;;;;;3.58;2.75;;;14.00;99.90;;;;;;6219603;23;20024;-90
2022/07/05 05:26:57;;;;;;;4.63;2.33;;;14.20;99.90;;;;;;6194973;23;20020;-90
2022/07/05 05:29:22;;;;;;;6.75;3.35;;;14.50;99.90;;;;;;6194899;23;20070;-90
2022/07/05 05:31:48;;;;;;;3.42;3.13;;;14.70;99.90;;;;;;6219300;23;20379;-90
2022/07/05 05:34:14;;;;;;;5.47;2.70;;;15.10;99.90;;;;;;6194582;23;20013;-90
2022/07/05 05:36:40;;;;;;;3.60;2.40;;;14.40;99.90;;;;;;6194541;23;20012;-90
2022/07/05 05:39:06;;;;;;;3.40;2.28;;;15.20;99.90;;;;;;6219569;23;20335;-90
2022/07/05 05:41:32;;;;;;;4.47;2.60;;;15.30;99.90;;;;;;6219766;23;20394;-90
2022/07/05 05:44:00;;;;;;;6.10;2.90;;;15.30;99.90;;;;;;6169719;23;20016;-90
2022/07/05 05:46:26;;;;;;;6.20;3.42;;;15.50;99.90;;;;;;6170161;23;20016;-93
2022/07/05 05:48:56;;;;;;;6.90;2.73;;;15.40;99.90;;;;;;6194734;23;20047;-90
2022/07/05 05:51:22;;;;;;;3.88;2.38;;;15.60;99.90;;;;;;6219865;23;20239;-90
2022/07/05 05:53:48;;;;;;;3.33;2.20;;;15.70;99.90;;;;;;6194507;23;20616;-91
2022/07/05 05:56:14;;;;;;;2.80;2.60;;;15.80;99.90;;;;;;6194916;23;20016;-91
2022/07/05 05:58:40;;;;;;;2.80;2.55;;;16.00;99.90;;;;;;6197113;23;20247;-89
2022/07/05 06:01:13;;;;;;;3.33;2.67;;;16.10;99.90;;;;;;6194131;23;20052;-90
2022/07/05 06:03:42;;;;;;;3.92;2.95;;;16.20;99.90;;;;;;6195072;23;20056;-89
2022/07/05 06:06:08;;;;;;;3.58;2.83;;;15.70;99.90;;;;;;6222010;23;20027;-89
2022/07/05 06:08:36;;;;;;;3.40;2.83;;;16.40;99.90;;;;;;6193829;23;20024;-90
2022/07/05 06:11:04;;;;;;;5.32;2.53;;;16.80;99.90;;;;;;6219149;23;20032;-89
2022/07/05 06:13:30;;;;;;;5.05;2.50;;;16.50;99.90;;;;;;6194827;23;20020;-91
2022/07/05 06:16:03;;;;;;;4.90;2.33;;;16.70;99.90;;;;;;6197962;23;20012;-89
2022/07/05 06:18:32;;;;;;;2.85;2.47;;;16.80;99.90;;;;;;6219658;23;20055;-90
2022/07/05 06:20:57;;;;;;;5.63;3.33;;;16.20;99.90;;;;;;6219838;23;20016;-89
2022/07/05 06:23:23;;;;;;;2.13;1.80;;;17.10;99.90;;;;;;6194493;23;20016;-89
2022/07/05 06:26:33;;;;;;;2.88;1.65;;;17.20;99.90;;;;;;6194761;23;20020;-88
2022/07/05 06:28:59;;;;;;;5.65;2.45;;;17.40;99.90;;;;;;6198522;23;20533;-89
2022/07/05 06:31:24;;;;;;;3.17;1.93;;;17.40;99.90;;;;;;6195643;23;20031;-89
2022/07/05 06:33:50;;;;;;;2.30;2.10;;;17.50;99.90;;;;;;6169444;23;20022;-88
2022/07/05 06:36:16;;;;;;;1.40;1.30;;;17.60;99.90;;;;;;6194177;23;20318;-88
2022/07/05 06:38:41;;;;;;;2.03;1.77;;;17.70;99.90;;;;;;6194771;23;20432;-88
2022/07/05 06:41:07;;;;;;;2.20;1.57;;;17.80;99.90;;;;;;6169734;23;20052;-90
2022/07/05 06:43:33;;;;;;;2.00;1.40;;;17.80;99.90;;;;;;6194196;23;20306;-91
2022/07/05 06:45:59;;;;;;;1.23;1.00;;;17.90;99.90;;;;;;6168434;23;20043;-91
2022/07/05 06:48:25;;;;;;;2.17;1.70;;;18.00;99.90;;;;;;6194351;23;20247;-88
2022/07/05 06:50:51;;;;;;;1.57;1.37;;;18.00;99.90;;;;;;6218363;23;20020;-90
2022/07/05 06:53:19;;;;;;;1.20;1.00;;;18.10;99.90;;;;;;6219727;23;20027;-92
2022/07/05 06:55:45;;;;;;;2.77;1.27;;;18.20;99.90;;;;;;6143243;23;20071;-93
2022/07/05 06:58:14;;;;;;;1.63;1.00;;;18.20;99.90;;;;;;6218638;23;20403;-92
2022/07/05 07:00:43;;;;;;;1.88;1.40;;;18.40;99.90;;;;;;6193246;23;20448;-90
2022/07/05 07:03:09;;;;;;;2.67;1.10;;;18.40;99.90;;;;;;6220200;23;20020;-92
2022/07/05 07:05:35;;;;;;;2.03;1.03;;;18.60;99.90;;;;;;6194088;23;20092;-92
2022/07/05 07:10:45;;;;;;;1.90;0.90;;;18.70;99.90;;;;;;6218900;23;20337;-91
2022/07/05 07:13:11;;;;;;;2.78;1.00;;;18.70;99.90;;;;;;6194050;23;20016;-93
2022/07/05 07:15:37;;;;;;;2.38;1.35;;;18.80;99.90;;;;;;6218956;23;20012;-92
2022/07/05 07:18:03;;;;;;;1.35;1.20;;;18.80;99.90;;;;;;6193682;23;20057;-90
2022/07/05 07:20:29;;;;;;;2.38;1.05;;;18.80;99.90;;;;;;6194231;23;20107;-91
2022/07/05 07:22:55;;;;;;;2.28;0.80;;;18.80;99.90;;;;;;6168445;23;20459;-89
2022/07/05 07:25:23;;;;;;;1.52;0.73;;;18.80;99.90;;;;;;6193457;23;20016;-91
2022/07/05 07:27:51;;;;;;;0.95;0.73;;;18.80;99.90;;;;;;6218601;23;20020;-92
2022/07/05 07:30:23;;;;;;;2.28;0.85;;;18.90;99.90;;;;;;6220645;23;20019;-93
2022/07/05 07:32:48;;;;;;;1.10;0.70;;;19.00;99.90;;;;;;6220334;23;20067;-96
2022/07/05 07:35:14;;;;;;;3.60;0.70;;;19.00;99.90;;;;;;6194780;23;20050;-95
2022/07/05 07:37:40;;;;;;;0.85;0.80;;;19.10;99.90;;;;;;6169531;23;20243;-95
2022/07/05 07:40:07;;;;;;;1.30;0.68;;;19.20;99.90;;;;;;6219060;23;20019;-96
2022/07/05 07:42:33;;;;;;;0.47;0.40;;;19.20;99.90;;;;;;6169291;23;20062;-96
2022/07/05 07:45:03;;;;;;;1.65;1.52;;;19.30;99.90;;;;;;6196489;23;20083;-92
2022/07/05 07:47:29;;;;;;;3.97;1.15;;;19.40;99.90;;;;;;6198153;23;20013;-95
2022/07/05 07:49:55;;;;;;;;;;;19.40;99.90;;;;;;6145687;23;20023;-93
2022/07/05 07:52:21;;;;;;;0.73;0.73;;;19.30;99.90;;;;;;6218750;23;19915;-94
2022/07/05 07:54:48;;;;;;;1.33;0.77;;;19.30;99.90;;;;;;6168447;23;20020;-91
2022/07/05 07:57:18;;;;;;;0.80;0.80;;;19.40;99.90;;;;;;6193477;23;20070;-91
2022/07/05 07:59:47;;;;;;;0.65;0.60;;;19.40;99.90;;;;;;6218799;23;20444;-94
2022/07/05 08:02:22;;;;;;;1.05;0.70;;;19.30;99.90;;;;;;6194738;23;20448;-92
2022/07/05 08:04:49;;;;;;;1.20;1.10;;;18.10;99.90;;;;;;6194395;23;20047;-96
2022/07/05 08:07:19;;;;;;;1.45;1.02;;;19.00;99.90;;;;;;6220201;23;20579;-93
2022/07/05 08:09:45;;;;;;;2.97;1.45;;;19.70;99.90;;;;;;6194882;23;20024;-93
2022/07/05 08:12:11;;;;;;;1.17;0.60;;;18.80;99.90;;;;;;6195227;23;20024;-92
2022/07/05 08:14:37;;;;;;;0.98;0.63;;;18.80;99.90;;;;;;6196663;23;20020;-93
2022/07/05 08:23:37;;;;;;;1.33;0.85;;;18.60;99.90;;;;;;6130556;23;20025;-93
2022/07/05 08:26:03;;;;;;;3.15;0.55;;;18.70;99.90;;;;;;6194746;23;20028;-91
2022/07/05 08:28:29;;;;;;;3.63;1.38;;;18.80;99.90;;;;;;6249483;23;20039;-90
2022/07/05 08:30:55;;;;;;;1.00;0.77;;;17.80;99.90;;;;;;6221217;23;20074;-88
2022/07/05 08:33:20;;;;;;;3.90;1.45;;;19.00;99.90;;;;;;6246493;23;20020;-91
2022/07/05 08:35:46;;;;;;;0.70;0.70;;;19.10;99.90;;;;;;6196028;23;20012;-91
2022/07/05 08:38:12;;;;;;;1.10;0.70;;;19.30;99.90;;;;;;6221006;23;20106;-96
2022/07/05 08:40:49;;;;;;;2.42;0.77;;;19.20;99.90;;;;;;6221805;23;20070;-96
2022/07/05 08:43:15;;;;;;;1.65;0.80;;;18.60;99.90;;;;;;6222431;23;20020;-92
2022/07/05 08:45:45;;;;;;;1.55;0.70;;;19.30;99.90;;;;;;6206575;23;20016;-92
2022/07/05 08:48:14;;;;;;;1.40;1.30;;;19.20;99.90;;;;;;6198626;23;20012;-91
2022/07/05 08:50:43;;;;;;;0.95;0.57;;;19.20;99.90;;;;;;6196463;23;20020;-95
2022/07/05 08:53:09;;;;;;;1.17;0.85;;;18.90;99.90;;;;;;6220449;23;20016;-94
2022/07/05 08:55:38;;;;;;;;;;;19.30;99.90;;;;;;6219824;23;20048;-95
2022/07/05 08:58:06;;;;;;;1.92;0.60;;;19.40;99.90;;;;;;6194381;23;19998;-92
2022/07/05 09:00:33;;;;;;;5.00;1.00;;;19.60;99.90;;;;;;6194888;23;20020;-93
2022/07/05 09:02:59;;;;;;;0.57;0.40;;;19.60;99.90;;;;;;6194837;23;20313;-92
2022/07/05 09:05:28;;;;;;;;;;;19.60;99.90;;;;;;6195640;23;20013;-92
2022/07/05 09:08:03;;;;;;;1.17;0.50;;;19.60;99.90;;;;;;6194600;23;19916;-94
2022/07/05 09:10:44;;;;;;;3.85;0.90;;;19.20;99.90;;;;;;6171316;23;20378;-93
2022/07/05 09:13:12;;;;;;;0.75;0.75;;;20.30;99.90;;;;;;6195346;23;20042;-92
2022/07/05 09:15:39;;;;;;;2.92;1.13;;;19.50;99.90;;;;;;6170289;23;20020;-91
2022/07/05 09:18:12;;;;;;;1.67;1.15;;;19.60;99.90;;;;;;6194135;23;20027;-88
2022/07/05 09:20:37;;;;;;;3.45;0.85;;;19.70;99.90;;;;;;6194308;23;20448;-88
2022/07/05 09:23:15;;;;;;;;;;;;;;;;;;;;;
2022/07/05 09:25:45;;;;;;;1.70;0.80;;;19.70;99.90;;;;;;6196620;23;20460;-93
2022/07/05 09:28:11;;;;;;;0.45;0.45;;;19.80;99.90;;;;;;6197838;23;20025;-96
2022/07/05 09:30:39;;;;;;;0.75;0.75;;;19.80;99.90;;;;;;6170472;23;20085;-96
2022/07/05 09:33:12;;;;;;;1.65;0.95;;;19.80;99.90;;;;;;6214202;23;20449;-90
2022/07/05 09:35:43;;;;;;;1.83;0.55;;;19.60;99.90;;;;;;6188946;23;20095;-89
2022/07/05 09:38:20;;;;;;;1.02;0.75;;;19.60;99.90;;;;;;6164308;23;20017;-88
2022/07/05 09:40:55;;;;;;;1.00;0.70;;;19.80;99.90;;;;;;6189471;23;20377;-88
2022/07/05 09:43:27;;;;;;;0.70;0.70;;;19.80;99.90;;;;;;6213393;23;20017;-90
2022/07/05 09:45:56;;;;;;;2.17;1.55;;;19.70;99.90;;;;;;6189389;23;20012;-92
2022/07/05 09:48:32;;;;;;;5.22;1.40;;;19.50;99.90;;;;;;6188802;23;20020;-91
2022/07/05 09:51:16;;;;;;;0.82;0.82;;;19.40;99.90;;;;;;6188949;23;20028;-91
2022/07/05 09:53:53;;;;;;;0.55;0.55;;;18.10;99.90;;;;;;6192828;23;20021;-94
2022/07/05 09:56:19;;;;;;;;;;;19.10;99.90;;;;;;6189803;23;20059;-93
2022/07/05 09:58:48;;;;;;;0.77;0.77;;;19.00;99.90;;;;;;6190579;23;19916;-95
2022/07/05 10:01:36;;;;;;;1.83;0.93;;;19.00;99.90;;;;;;6189984;23;20021;-93
2022/07/05 10:04:05;;;;;;;1.42;1.05;;;18.90;99.90;;;;;;6190523;23;20456;-94
2022/07/05 10:06:34;;;;;;;1.25;1.20;;;18.30;99.90;;;;;;6215362;23;20459;-90
2022/07/05 10:09:01;;;;;;;1.08;0.80;;;19.00;99.90;;;;;;6189998;23;20028;-94
2022/07/05 10:11:27;;;;;;;1.17;0.80;;;18.90;99.90;;;;;;6189541;23;20048;-94
2022/07/05 10:13:58;;;;;;;0.50;0.50;;;18.90;99.90;;;;;;6214587;23;20086;-95
2022/07/05 10:16:23;;;;;;;0.70;0.68;;;19.00;99.90;;;;;;6189037;23;20017;-93
2022/07/05 10:19:00;;;;;;;1.13;1.10;;;18.80;99.90;;;;;;6189537;23;20020;-93
2022/07/05 10:21:27;;;;;;;1.02;0.95;;;18.90;99.90;;;;;;6214926;23;20503;-94
2022/07/05 10:23:55;;;;;;;1.13;0.60;;;18.90;99.90;;;;;;6214888;23;20351;-95
2022/07/05 10:26:23;;;;;;;3.42;1.35;;;18.80;99.90;;;;;;6193245;23;20083;-94
2022/07/05 10:28:54;;;;;;;0.85;0.68;;;18.90;99.90;;;;;;6224192;23;20021;-95
2022/07/05 10:31:23;;;;;;;0.70;0.70;;;18.90;99.90;;;;;;6196117;23;20099;-93
2022/07/05 10:33:50;;;;;;;1.13;0.82;;;18.90;99.90;;;;;;6193648;23;20074;-92
2022/07/05 10:36:17;;;;;;;2.10;0.65;;;19.00;99.90;;;;;;6194127;23;20048;-93
2022/07/05 10:38:47;;;;;;;0.90;0.88;;;19.00;99.90;;;;;;6194626;23;20027;-93
2022/07/05 10:41:18;;;;;;;1.70;0.82;;;19.10;99.90;;;;;;6192783;23;20467;-90
2022/07/05 10:43:44;;;;;;;1.60;1.00;;;19.00;99.90;;;;;;6193732;23;20018;-95
2022/07/05 10:46:12;;;;;;;1.17;0.82;;;19.00;99.90;;;;;;6197304;23;20056;-94
2022/07/05 10:48:38;;;;;;;2.78;1.02;;;18.90;99.90;;;;;;6220080;23;20016;-91
2022/07/05 10:51:12;;;;;;;1.98;0.90;;;18.90;99.90;;;;;;6196124;23;20107;-91
2022/07/05 10:53:38;;;;;;;2.42;0.80;;;18.90;99.90;;;;;;6222367;23;20039;-96
2022/07/05 10:56:04;;;;;;;0.80;0.80;;;18.80;99.90;;;;;;6198890;23;20091;-95
2022/07/05 10:58:40;;;;;;;2.75;1.73;;;18.90;99.90;;;;;;6194799;23;20019;-95
2022/07/05 11:01:18;;;;;;;1.00;1.00;;;18.20;99.90;;;;;;6194956;23;20019;-95
2022/07/05 11:04:05;;;;;;;3.50;1.42;;;19.10;99.90;;;;;;6197149;23;20022;-95
2022/07/05 11:06:39;;;;;;;1.33;0.88;;;19.30;99.90;;;;;;6219482;23;20482;-92
2022/07/05 11:09:16;;;;;;;2.20;1.08;;;19.30;99.90;;;;;;6170421;23;20064;-92
2022/07/05 11:12:01;;;;;;;4.90;1.02;;;19.30;99.90;;;;;;6193474;23;20447;-92
2022/07/05 11:14:29;;;;;;;0.90;0.82;;;19.20;99.90;;;;;;6192784;23;20099;-94
2022/07/05 11:17:15;;;;;;;1.98;0.93;;;19.10;99.90;;;;;;6195658;23;20070;-92
2022/07/05 11:20:08;;;;;;;4.55;0.82;;;19.00;99.90;;;;;;6219090;23;20087;-91
2022/07/05 11:22:36;;;;;;;4.05;0.90;;;19.10;99.90;;;;;;6194032;23;20020;-93
2022/07/05 11:25:19;;;;;;;1.77;0.80;;;19.10;99.90;;;;;;6169231;23;20461;-94
2022/07/05 11:28:05;;;;;;;6.68;2.05;;;18.80;99.90;;;;;;6188568;23;20021;-95
2022/07/05 11:31:00;;;;;;;1.00;0.63;;;19.20;99.90;;;;;;6213150;23;20047;-91
2022/07/05 11:33:42;;;;;;;5.68;1.60;;;19.40;99.90;;;;;;6188186;23;20074;-89
2022/07/05 11:36:30;;;;;;;1.23;0.70;;;19.40;99.90;;;;;;6188579;23;20013;-88
2022/07/05 11:39:34;;;;;;;1.10;1.00;;;18.40;99.90;;;;;;6188641;23;20020;-93
2022/07/05 11:42:06;;;;;;;0.80;0.80;;;19.50;99.90;;;;;;6023123;23;20026;-91
2022/07/05 11:44:33;;;;;;;1.88;1.08;;;19.70;99.90;;;;;;6046893;23;20463;-91
2022/07/05 11:46:59;;;;;;;32.47;5.65;;;19.80;99.90;;;;;;6184035;23;20066;-92
2022/07/05 11:49:25;;;;;;;3.17;1.00;;;20.00;99.90;;;;;;6189576;23;20021;-92
2022/07/05 11:52:02;;;;;;;6.78;1.23;;;20.40;99.90;;;;;;6215045;23;20047;-91
2022/07/05 11:54:30;;;;;;;2.00;1.45;;;20.20;99.90;;;;;;6189702;23;20071;-92
2022/07/05 11:56:57;;;;;;;2.08;0.70;;;20.20;99.90;;;;;;6189911;23;20012;-90
2022/07/05 11:59:26;;;;;;;7.35;2.92;;;20.10;99.90;;;;;;6214559;23;20016;-92
2022/07/05 12:01:55;;;;;;;2.30;1.10;;;20.00;99.90;;;;;;6190184;23;20463;-91
2022/07/05 12:04:29;;;;;;;1.55;0.60;;;19.80;99.90;;;;;;6189508;23;20051;-93
2022/07/05 12:06:58;;;;;;;1.33;0.47;;;20.10;99.90;;;;;;6190084;23;20017;-93
2022/07/05 12:12:43;;;;;;;0.70;0.70;;;19.70;99.90;;;;;;6193826;23;20077;-91
2022/07/05 12:15:19;;;;;;;0.55;0.43;;;19.80;99.90;;;;;;6189603;23;20016;-92
2022/07/05 12:18:00;;;;;;;;;;;;;;;;;;;;;
2022/07/05 12:20:26;;;;;;;3.83;0.50;;;20.30;99.90;;;;;;6213408;23;20024;-91
2022/07/05 12:22:52;;;;;;;0.60;0.60;;;20.40;99.90;;;;;;6164255;23;20019;-88
2022/07/05 12:25:20;;;;;;;4.85;1.20;;;20.60;99.90;;;;;;6189551;23;20391;-87
2022/07/05 12:27:50;;;;;;;1.40;0.50;;;20.60;99.90;;;;;;6164718;23;20059;-87
2022/07/05 12:30:17;;;;;;;0.77;0.77;;;20.50;99.90;;;;;;6215173;23;20017;-87
2022/07/05 12:33:04;;;;;;;0.55;0.52;;;20.50;99.90;;;;;;6214697;23;20021;-87
2022/07/05 12:35:42;;;;;;;0.55;0.47;;;20.60;99.90;;;;;;6189229;23;20059;-87
2022/07/05 12:38:18;;;;;;;0.65;0.65;;;20.70;99.90;;;;;;6189317;23;20016;-87
2022/07/05 12:40:56;;;;;;;1.45;0.52;;;20.80;99.90;;;;;;6164549;23;20124;-87
2022/07/05 12:43:22;;;;;;;0.63;0.50;;;20.70;99.90;;;;;;6214864;23;20020;-90
2022/07/05 12:46:05;;;;;;;0.63;0.50;;;21.40;99.90;;;;;;6189280;23;20070;-88
2022/07/05 12:48:36;;;;;;;1.00;0.90;;;20.70;99.90;;;;;;6189282;23;20017;-86
2022/07/05 12:51:03;;;;;;;1.95;0.80;;;20.80;99.90;;;;;;6189523;23;20021;-85
2022/07/05 12:59:01;;;;;;;0.98;0.88;;;21.10;99.90;;;;;;6214730;23;20020;-85
2022/07/05 13:01:37;;;;;;;1.05;0.85;;;21.10;99.90;;;;;;6189082;23;20047;-86
2022/07/05 13:04:14;;;;;;;2.17;1.40;;;21.20;99.90;;;;;;6192208;23;20035;-84
2022/07/05 13:06:40;;;;;;;0.75;0.65;;;21.20;99.90;;;;;;6188430;23;20816;-84
2022/07/05 13:09:08;;;;;;;;;;;21.20;99.90;;;;;;6189847;23;20143;-87
2022/07/05 13:11:34;;;;;;;1.33;0.95;;;21.10;99.90;;;;;;6213644;23;19923;-89
2022/07/05 13:14:05;;;;;;;3.40;1.42;;;21.10;99.90;;;;;;6139828;23;20021;-90
2022/07/05 13:16:51;;;;;;;1.00;0.73;;;20.90;99.90;;;;;;6139468;23;20059;-88
2022/07/05 13:20:05;;;;;;;;;;;;;;;;;;;;;
2022/07/05 13:25:30;;;;;;;0.60;0.60;;;20.90;99.90;;;;;;6190436;23;20021;-93